<?xml version="1.0" encoding="UTF-8" standalone="no" ?>
<gpx xmlns="http://www.topografix.com/GPX/1/1" xmlns:xsi="http://www.w3.org/2001/XMLSchema-instance" xsi:schemaLocation="http://www.topografix.com/GPX/1/1 http://www.topografix.com/GPX/1/1/gpx.xsd" version="1.1" creator="VisuGPX - https://www.visugpx.com">
  <metadata>
    <name>Restanque - 23 mars 2025</name>
  </metadata>
  <trk>
    <name><![CDATA[Restanque - 23 mars 2025]]></name>
    <extensions>
      <line xmlns="http://www.topografix.com/GPX/gpx_style/0/2">
        <color>0000FF</color>
        <width>4</width>
      </line>
    </extensions>
    <trkseg>
      <trkpt lat="43.60852" lon="3.8794">
        <ele>39.415421</ele>
        <time>2025-03-13T19:28:26.789Z</time>
      </trkpt>
      <trkpt lat="43.60844" lon="3.87925">
        <ele>39.415421</ele>
        <time>2025-03-13T19:28:31.581Z</time>
      </trkpt>
      <trkpt lat="43.60825" lon="3.87923">
        <ele>39.415421</ele>
        <time>2025-03-13T19:28:38.167Z</time>
      </trkpt>
      <trkpt lat="43.60801" lon="3.87928">
        <ele>33.8</ele>
      </trkpt>
      <trkpt lat="43.60726" lon="3.87859">
        <ele>30</ele>
        <time>2025-03-13T19:29:20.750Z</time>
      </trkpt>
      <trkpt lat="43.60741" lon="3.87836">
        <ele>37.884368</ele>
        <time>2025-03-13T19:29:25.173Z</time>
      </trkpt>
      <trkpt lat="43.60742" lon="3.87831">
        <ele>37.824819</ele>
        <time>2025-03-13T19:29:25.720Z</time>
      </trkpt>
      <trkpt lat="43.60691" lon="3.87781">
        <ele>36.750558</ele>
        <time>2025-03-13T19:29:35.618Z</time>
      </trkpt>
      <trkpt lat="43.60675" lon="3.87765">
        <ele>36.409974</ele>
        <time>2025-03-13T19:29:39.068Z</time>
      </trkpt>
      <trkpt lat="43.60663" lon="3.8779">
        <ele>36.07801</ele>
        <time>2025-03-13T19:29:43.329Z</time>
      </trkpt>
      <trkpt lat="43.60654" lon="3.8778">
        <ele>35.919017</ele>
        <time>2025-03-13T19:29:45.434Z</time>
      </trkpt>
      <trkpt lat="43.6064" lon="3.87764">
        <ele>35.657506</ele>
        <time>2025-03-13T19:29:49.007Z</time>
      </trkpt>
      <trkpt lat="43.60632" lon="3.8775">
        <ele>35.48024</ele>
        <time>2025-03-13T19:29:51.481Z</time>
      </trkpt>
      <trkpt lat="43.60628" lon="3.87741">
        <ele>35.370076</ele>
        <time>2025-03-13T19:29:53.030Z</time>
      </trkpt>
      <trkpt lat="43.60625" lon="3.87734">
        <ele>35.291768</ele>
        <time>2025-03-13T19:29:54.135Z</time>
      </trkpt>
      <trkpt lat="43.60622" lon="3.87725">
        <ele>35.184071</ele>
        <time>2025-03-13T19:29:55.704Z</time>
      </trkpt>
      <trkpt lat="43.60616" lon="3.87715">
        <ele>35.052091</ele>
        <time>2025-03-13T19:29:57.615Z</time>
      </trkpt>
      <trkpt lat="43.60604" lon="3.87746">
        <ele>34.693761</ele>
        <time>2025-03-13T19:30:02.802Z</time>
      </trkpt>
      <trkpt lat="43.606" lon="3.87743">
        <ele>34.637218</ele>
        <time>2025-03-13T19:30:03.659Z</time>
      </trkpt>
      <trkpt lat="43.60594" lon="3.87745">
        <ele>34.554175</ele>
        <time>2025-03-13T19:30:04.847Z</time>
      </trkpt>
      <trkpt lat="43.60547" lon="3.87754">
        <ele>33.875704</ele>
        <time>2025-03-13T19:30:14.150Z</time>
      </trkpt>
      <trkpt lat="43.60537" lon="3.87756">
        <ele>33.724574</ele>
        <time>2025-03-13T19:30:15.853Z</time>
      </trkpt>
      <trkpt lat="43.60453" lon="3.87773">
        <ele>31.618876</ele>
        <time>2025-03-13T19:30:29.519Z</time>
      </trkpt>
      <trkpt lat="43.60443" lon="3.87775">
        <ele>31.384823</ele>
        <time>2025-03-13T19:30:30.986Z</time>
      </trkpt>
      <trkpt lat="43.60437" lon="3.87777">
        <ele>31.24252</ele>
        <time>2025-03-13T19:30:31.885Z</time>
      </trkpt>
      <trkpt lat="43.60429" lon="3.87791">
        <ele>30.901673</ele>
        <time>2025-03-13T19:30:34.054Z</time>
      </trkpt>
      <trkpt lat="43.60415" lon="3.87825">
        <ele>30.21619</ele>
        <time>2025-03-13T19:30:38.651Z</time>
      </trkpt>
      <trkpt lat="43.60406" lon="3.87848">
        <ele>29.761425</ele>
        <time>2025-03-13T19:30:41.951Z</time>
      </trkpt>
      <trkpt lat="43.60403" lon="3.87855">
        <ele>29.607076</ele>
        <time>2025-03-13T19:30:43.204Z</time>
      </trkpt>
      <trkpt lat="43.60388" lon="3.87879">
        <ele>29.519418</ele>
        <time>2025-03-13T19:30:48.074Z</time>
      </trkpt>
      <trkpt lat="43.60369" lon="3.87904">
        <ele>29.904985</ele>
        <time>2025-03-13T19:30:55.146Z</time>
      </trkpt>
      <trkpt lat="43.60349" lon="3.87936">
        <ele>30.352073</ele>
        <time>2025-03-13T19:31:04.898Z</time>
      </trkpt>
      <trkpt lat="43.60334" lon="3.87958">
        <ele>30.661715</ele>
        <time>2025-03-13T19:31:12.097Z</time>
      </trkpt>
      <trkpt lat="43.60333" lon="3.8796">
        <ele>30.688202</ele>
        <time>2025-03-13T19:31:12.718Z</time>
      </trkpt>
      <trkpt lat="43.60305" lon="3.88005">
        <ele>31.322836</ele>
        <time>2025-03-13T19:31:27.371Z</time>
      </trkpt>
      <trkpt lat="43.6029" lon="3.88025">
        <ele>31.621904</ele>
        <time>2025-03-13T19:31:34.155Z</time>
      </trkpt>
      <trkpt lat="43.60284" lon="3.88035">
        <ele>31.757743</ele>
        <time>2025-03-13T19:31:37.116Z</time>
      </trkpt>
      <trkpt lat="43.60278" lon="3.88032">
        <ele>31.861711</ele>
        <time>2025-03-13T19:31:39.242Z</time>
      </trkpt>
      <trkpt lat="43.60221" lon="3.88007">
        <ele>31.813626</ele>
        <time>2025-03-13T19:31:53.576Z</time>
      </trkpt>
      <trkpt lat="43.60201" lon="3.87998">
        <ele>31.751652</ele>
        <time>2025-03-13T19:31:57.645Z</time>
      </trkpt>
      <trkpt lat="43.60222" lon="3.87936">
        <ele>31.609324</ele>
        <time>2025-03-13T19:32:06.720Z</time>
      </trkpt>
      <trkpt lat="43.60233" lon="3.87897">
        <ele>31.522158</ele>
        <time>2025-03-13T19:32:12.592Z</time>
      </trkpt>
      <trkpt lat="43.6016" lon="3.87854">
        <ele>31.577105</ele>
        <time>2025-03-13T19:32:29.425Z</time>
      </trkpt>
      <trkpt lat="43.60147" lon="3.87847">
        <ele>31.610716</ele>
        <time>2025-03-13T19:32:32.623Z</time>
      </trkpt>
      <trkpt lat="43.6009" lon="3.87815">
        <ele>31.759248</ele>
        <time>2025-03-13T19:32:47.498Z</time>
      </trkpt>
      <trkpt lat="43.60032" lon="3.87826">
        <ele>31.986178</ele>
        <time>2025-03-13T19:33:01.860Z</time>
      </trkpt>
      <trkpt lat="43.6002" lon="3.87781">
        <ele>32.442471</ele>
        <time>2025-03-13T19:33:11.064Z</time>
      </trkpt>
      <trkpt lat="43.60012" lon="3.87749">
        <ele>32.758057</ele>
        <time>2025-03-13T19:33:17.644Z</time>
      </trkpt>
      <trkpt lat="43.60006" lon="3.87724">
        <ele>33.008578</ele>
        <time>2025-03-13T19:33:22.663Z</time>
      </trkpt>
      <trkpt lat="43.59995" lon="3.87678">
        <ele>33.473822</ele>
        <time>2025-03-13T19:33:31.711Z</time>
      </trkpt>
      <trkpt lat="43.59993" lon="3.87669">
        <ele>33.555821</ele>
        <time>2025-03-13T19:33:33.542Z</time>
      </trkpt>
      <trkpt lat="43.59985" lon="3.87623">
        <ele>34.003281</ele>
        <time>2025-03-13T19:33:43.875Z</time>
      </trkpt>
      <trkpt lat="43.59985" lon="3.8762">
        <ele>34.03737</ele>
        <time>2025-03-13T19:33:44.669Z</time>
      </trkpt>
      <trkpt lat="43.59984" lon="3.87616">
        <ele>34.077616</ele>
        <time>2025-03-13T19:33:45.687Z</time>
      </trkpt>
      <trkpt lat="43.59979" lon="3.87587">
        <ele>34.24722</ele>
        <time>2025-03-13T19:33:53.082Z</time>
      </trkpt>
      <trkpt lat="43.59978" lon="3.87583">
        <ele>34.249922</ele>
        <time>2025-03-13T19:33:54.015Z</time>
      </trkpt>
      <trkpt lat="43.59976" lon="3.87567">
        <ele>34.260564</ele>
        <time>2025-03-13T19:33:57.903Z</time>
      </trkpt>
      <trkpt lat="43.59976" lon="3.87564">
        <ele>34.262452</ele>
        <time>2025-03-13T19:33:58.558Z</time>
      </trkpt>
      <trkpt lat="43.59975" lon="3.87558">
        <ele>34.266847</ele>
        <time>2025-03-13T19:33:59.973Z</time>
      </trkpt>
      <trkpt lat="43.59973" lon="3.8755">
        <ele>34.272233</ele>
        <time>2025-03-13T19:34:01.966Z</time>
      </trkpt>
      <trkpt lat="43.59964" lon="3.87552">
        <ele>34.2809</ele>
        <time>2025-03-13T19:34:04.822Z</time>
      </trkpt>
      <trkpt lat="43.59909" lon="3.87558">
        <ele>34.331391</ele>
        <time>2025-03-13T19:34:19.244Z</time>
      </trkpt>
      <trkpt lat="43.59864" lon="3.87567">
        <ele>34.37322</ele>
        <time>2025-03-13T19:34:28.446Z</time>
      </trkpt>
      <trkpt lat="43.5979" lon="3.87576">
        <ele>33.265232</ele>
        <time>2025-03-13T19:34:40.749Z</time>
      </trkpt>
      <trkpt lat="43.59764" lon="3.87581">
        <ele>32.522323</ele>
        <time>2025-03-13T19:34:44.851Z</time>
      </trkpt>
      <trkpt lat="43.59746" lon="3.87589">
        <ele>32.000245</ele>
        <time>2025-03-13T19:34:47.754Z</time>
      </trkpt>
      <trkpt lat="43.59739" lon="3.87592">
        <ele>31.787216</ele>
        <time>2025-03-13T19:34:48.956Z</time>
      </trkpt>
      <trkpt lat="43.59704" lon="3.87602">
        <ele>30.814969</ele>
        <time>2025-03-13T19:34:54.640Z</time>
      </trkpt>
      <trkpt lat="43.59686" lon="3.876">
        <ele>30.313519</ele>
        <time>2025-03-13T19:34:57.781Z</time>
      </trkpt>
      <trkpt lat="43.59666" lon="3.87591">
        <ele>29.702141</ele>
        <time>2025-03-13T19:35:01.727Z</time>
      </trkpt>
      <trkpt lat="43.59655" lon="3.87574">
        <ele>29.340843</ele>
        <time>2025-03-13T19:35:04.693Z</time>
      </trkpt>
      <trkpt lat="43.59655" lon="3.87558">
        <ele>29.207291</ele>
        <time>2025-03-13T19:35:06.863Z</time>
      </trkpt>
      <trkpt lat="43.59657" lon="3.87547">
        <ele>29.112464</ele>
        <time>2025-03-13T19:35:08.364Z</time>
      </trkpt>
      <trkpt lat="43.59675" lon="3.87515">
        <ele>28.779267</ele>
        <time>2025-03-13T19:35:13.803Z</time>
      </trkpt>
      <trkpt lat="43.59684" lon="3.87484">
        <ele>28.507087</ele>
        <time>2025-03-13T19:35:18.546Z</time>
      </trkpt>
      <trkpt lat="43.59683" lon="3.87459">
        <ele>28.298122</ele>
        <time>2025-03-13T19:35:22.253Z</time>
      </trkpt>
      <trkpt lat="43.59678" lon="3.87436">
        <ele>28.095656</ele>
        <time>2025-03-13T19:35:25.879Z</time>
      </trkpt>
      <trkpt lat="43.59674" lon="3.87427">
        <ele>28.009699</ele>
        <time>2025-03-13T19:35:27.393Z</time>
      </trkpt>
      <trkpt lat="43.59659" lon="3.87406">
        <ele>27.764581</ele>
        <time>2025-03-13T19:35:31.668Z</time>
      </trkpt>
      <trkpt lat="43.59641" lon="3.87371">
        <ele>27.408665</ele>
        <time>2025-03-13T19:35:37.589Z</time>
      </trkpt>
      <trkpt lat="43.59636" lon="3.87365">
        <ele>27.32959</ele>
        <time>2025-03-13T19:35:38.781Z</time>
      </trkpt>
      <trkpt lat="43.59626" lon="3.87361">
        <ele>27.151584</ele>
        <time>2025-03-13T19:35:40.663Z</time>
      </trkpt>
      <trkpt lat="43.59618" lon="3.8736">
        <ele>27.006836</ele>
        <time>2025-03-13T19:35:42.188Z</time>
      </trkpt>
      <trkpt lat="43.59589" lon="3.874">
        <ele>26.297978</ele>
        <time>2025-03-13T19:35:49.698Z</time>
      </trkpt>
      <trkpt lat="43.59586" lon="3.87408">
        <ele>26.18392</ele>
        <time>2025-03-13T19:35:50.894Z</time>
      </trkpt>
      <trkpt lat="43.59537" lon="3.87474">
        <ele>24.993114</ele>
        <time>2025-03-13T19:36:03.059Z</time>
      </trkpt>
      <trkpt lat="43.59533" lon="3.87479">
        <ele>24.906831</ele>
        <time>2025-03-13T19:36:03.972Z</time>
      </trkpt>
      <trkpt lat="43.59494" lon="3.87536">
        <ele>23.94921</ele>
        <time>2025-03-13T19:36:14.063Z</time>
      </trkpt>
      <trkpt lat="43.59478" lon="3.87553">
        <ele>23.622401</ele>
        <time>2025-03-13T19:36:17.574Z</time>
      </trkpt>
      <trkpt lat="43.59463" lon="3.87561">
        <ele>23.371143</ele>
        <time>2025-03-13T19:36:20.259Z</time>
      </trkpt>
      <trkpt lat="43.59457" lon="3.87564">
        <ele>23.262637</ele>
        <time>2025-03-13T19:36:21.420Z</time>
      </trkpt>
      <trkpt lat="43.59447" lon="3.87556">
        <ele>23.083291</ele>
        <time>2025-03-13T19:36:23.323Z</time>
      </trkpt>
      <trkpt lat="43.59398" lon="3.87535">
        <ele>22.262859</ele>
        <time>2025-03-13T19:36:32.261Z</time>
      </trkpt>
      <trkpt lat="43.59379" lon="3.87525">
        <ele>21.943327</ele>
        <time>2025-03-13T19:36:36.126Z</time>
      </trkpt>
      <trkpt lat="43.59368" lon="3.87519">
        <ele>21.757112</ele>
        <time>2025-03-13T19:36:38.528Z</time>
      </trkpt>
      <trkpt lat="43.5934" lon="3.87502">
        <ele>21.409446</ele>
        <time>2025-03-13T19:36:44.740Z</time>
      </trkpt>
      <trkpt lat="43.59312" lon="3.87479">
        <ele>21.711244</ele>
        <time>2025-03-13T19:36:51.904Z</time>
      </trkpt>
      <trkpt lat="43.59306" lon="3.87475">
        <ele>21.766034</ele>
        <time>2025-03-13T19:36:53.318Z</time>
      </trkpt>
      <trkpt lat="43.593" lon="3.87466">
        <ele>21.850264</ele>
        <time>2025-03-13T19:36:55.490Z</time>
      </trkpt>
      <trkpt lat="43.5929" lon="3.87474">
        <ele>21.962572</ele>
        <time>2025-03-13T19:36:58.615Z</time>
      </trkpt>
      <trkpt lat="43.59286" lon="3.87462">
        <ele>22.048782</ele>
        <time>2025-03-13T19:37:01.045Z</time>
      </trkpt>
      <trkpt lat="43.59264" lon="3.8744">
        <ele>22.296999</ele>
        <time>2025-03-13T19:37:08.477Z</time>
      </trkpt>
      <trkpt lat="43.59258" lon="3.87435">
        <ele>22.364263</ele>
        <time>2025-03-13T19:37:10.621Z</time>
      </trkpt>
      <trkpt lat="43.59217" lon="3.87403">
        <ele>22.786956</ele>
        <time>2025-03-13T19:37:24.347Z</time>
      </trkpt>
      <trkpt lat="43.59163" lon="3.8737">
        <ele>23.570632</ele>
        <time>2025-03-13T19:37:41.497Z</time>
      </trkpt>
      <trkpt lat="43.59158" lon="3.87367">
        <ele>23.657586</ele>
        <time>2025-03-13T19:37:43.143Z</time>
      </trkpt>
      <trkpt lat="43.59144" lon="3.8736">
        <ele>23.897242</ele>
        <time>2025-03-13T19:37:47.495Z</time>
      </trkpt>
      <trkpt lat="43.59122" lon="3.87354">
        <ele>24.261976</ele>
        <time>2025-03-13T19:37:54.131Z</time>
      </trkpt>
      <trkpt lat="43.59032" lon="3.87322">
        <ele>25.749692</ele>
        <time>2025-03-13T19:38:20.746Z</time>
      </trkpt>
      <trkpt lat="43.58968" lon="3.87295">
        <ele>26.634217</ele>
        <time>2025-03-13T19:38:39.244Z</time>
      </trkpt>
      <trkpt lat="43.58882" lon="3.87256">
        <ele>27.79651</ele>
        <time>2025-03-13T19:39:04.186Z</time>
      </trkpt>
      <trkpt lat="43.58855" lon="3.87243">
        <ele>28.163794</ele>
        <time>2025-03-13T19:39:12.224Z</time>
      </trkpt>
      <trkpt lat="43.58836" lon="3.87234">
        <ele>28.082785</ele>
        <time>2025-03-13T19:39:17.421Z</time>
      </trkpt>
      <trkpt lat="43.58824" lon="3.87229">
        <ele>28.019041</ele>
        <time>2025-03-13T19:39:20.553Z</time>
      </trkpt>
      <trkpt lat="43.5882" lon="3.87227">
        <ele>27.997497</ele>
        <time>2025-03-13T19:39:21.591Z</time>
      </trkpt>
      <trkpt lat="43.58793" lon="3.87214">
        <ele>27.845417</ele>
        <time>2025-03-13T19:39:28.357Z</time>
      </trkpt>
      <trkpt lat="43.58768" lon="3.87208">
        <ele>27.715357</ele>
        <time>2025-03-13T19:39:33.604Z</time>
      </trkpt>
      <trkpt lat="43.58761" lon="3.87209">
        <ele>27.682215</ele>
        <time>2025-03-13T19:39:34.923Z</time>
      </trkpt>
      <trkpt lat="43.5876" lon="3.87209">
        <ele>27.674886</ele>
        <time>2025-03-13T19:39:35.199Z</time>
      </trkpt>
      <trkpt lat="43.58749" lon="3.87212">
        <ele>27.616375</ele>
        <time>2025-03-13T19:39:37.444Z</time>
      </trkpt>
      <trkpt lat="43.58719" lon="3.87232">
        <ele>27.443078</ele>
        <time>2025-03-13T19:39:43.896Z</time>
      </trkpt>
      <trkpt lat="43.58713" lon="3.87236">
        <ele>27.408908</ele>
        <time>2025-03-13T19:39:45.129Z</time>
      </trkpt>
      <trkpt lat="43.58706" lon="3.87237">
        <ele>27.375747</ele>
        <time>2025-03-13T19:39:46.321Z</time>
      </trkpt>
      <trkpt lat="43.58696" lon="3.87244">
        <ele>27.314654</ele>
        <time>2025-03-13T19:39:48.446Z</time>
      </trkpt>
      <trkpt lat="43.58691" lon="3.87246">
        <ele>27.291298</ele>
        <time>2025-03-13T19:39:49.260Z</time>
      </trkpt>
      <trkpt lat="43.58686" lon="3.87244">
        <ele>27.262727</ele>
        <time>2025-03-13T19:39:50.218Z</time>
      </trkpt>
      <trkpt lat="43.58682" lon="3.87247">
        <ele>27.206005</ele>
        <time>2025-03-13T19:39:51.041Z</time>
      </trkpt>
      <trkpt lat="43.5868" lon="3.87257">
        <ele>27.06273</ele>
        <time>2025-03-13T19:39:52.264Z</time>
      </trkpt>
      <trkpt lat="43.58676" lon="3.87277">
        <ele>26.753711</ele>
        <time>2025-03-13T19:39:54.844Z</time>
      </trkpt>
      <trkpt lat="43.58635" lon="3.87326">
        <ele>25.669491</ele>
        <time>2025-03-13T19:40:03.778Z</time>
      </trkpt>
      <trkpt lat="43.58581" lon="3.8739">
        <ele>24.241674</ele>
        <time>2025-03-13T19:40:16.199Z</time>
      </trkpt>
      <trkpt lat="43.58579" lon="3.874">
        <ele>24.086647</ele>
        <time>2025-03-13T19:40:17.582Z</time>
      </trkpt>
      <trkpt lat="43.58584" lon="3.87589">
        <ele>23.048669</ele>
        <time>2025-03-13T19:40:44.472Z</time>
      </trkpt>
      <trkpt lat="43.58584" lon="3.876">
        <ele>23.006526</ele>
        <time>2025-03-13T19:40:46.400Z</time>
      </trkpt>
      <trkpt lat="43.58581" lon="3.87627">
        <ele>22.90515</ele>
        <time>2025-03-13T19:40:51.022Z</time>
      </trkpt>
      <trkpt lat="43.58577" lon="3.87655">
        <ele>22.797939</ele>
        <time>2025-03-13T19:40:55.974Z</time>
      </trkpt>
      <trkpt lat="43.58574" lon="3.87664">
        <ele>22.764799</ele>
        <time>2025-03-13T19:40:57.508Z</time>
      </trkpt>
      <trkpt lat="43.5857" lon="3.87682">
        <ele>22.695226</ele>
        <time>2025-03-13T19:41:00.881Z</time>
      </trkpt>
      <trkpt lat="43.58564" lon="3.8773">
        <ele>22.547971</ele>
        <time>2025-03-13T19:41:08.847Z</time>
      </trkpt>
      <trkpt lat="43.58563" lon="3.87781">
        <ele>22.392804</ele>
        <time>2025-03-13T19:41:16.903Z</time>
      </trkpt>
      <trkpt lat="43.58566" lon="3.87833">
        <ele>22.234339</ele>
        <time>2025-03-13T19:41:24.799Z</time>
      </trkpt>
      <trkpt lat="43.58578" lon="3.87903">
        <ele>22.014406</ele>
        <time>2025-03-13T19:41:35.046Z</time>
      </trkpt>
      <trkpt lat="43.58583" lon="3.87948">
        <ele>21.809965</ele>
        <time>2025-03-13T19:41:41.195Z</time>
      </trkpt>
      <trkpt lat="43.58583" lon="3.8799">
        <ele>21.57317</ele>
        <time>2025-03-13T19:41:46.959Z</time>
      </trkpt>
      <trkpt lat="43.58582" lon="3.88004">
        <ele>21.491334</ele>
        <time>2025-03-13T19:41:48.963Z</time>
      </trkpt>
      <trkpt lat="43.5858" lon="3.88031">
        <ele>21.338795</ele>
        <time>2025-03-13T19:41:52.730Z</time>
      </trkpt>
      <trkpt lat="43.58572" lon="3.88073">
        <ele>21.095478</ele>
        <time>2025-03-13T19:41:58.918Z</time>
      </trkpt>
      <trkpt lat="43.58562" lon="3.8811">
        <ele>20.86991</ele>
        <time>2025-03-13T19:42:04.819Z</time>
      </trkpt>
      <trkpt lat="43.58538" lon="3.88178">
        <ele>20.469232</ele>
        <time>2025-03-13T19:42:16.090Z</time>
      </trkpt>
      <trkpt lat="43.58527" lon="3.88208">
        <ele>20.318778</ele>
        <time>2025-03-13T19:42:21.286Z</time>
      </trkpt>
      <trkpt lat="43.58525" lon="3.88212">
        <ele>20.299803</ele>
        <time>2025-03-13T19:42:21.931Z</time>
      </trkpt>
      <trkpt lat="43.58524" lon="3.88216">
        <ele>20.278681</ele>
        <time>2025-03-13T19:42:22.666Z</time>
      </trkpt>
      <trkpt lat="43.5852" lon="3.88225">
        <ele>20.231518</ele>
        <time>2025-03-13T19:42:24.303Z</time>
      </trkpt>
      <trkpt lat="43.58481" lon="3.88331">
        <ele>19.702189</ele>
        <time>2025-03-13T19:42:42.060Z</time>
      </trkpt>
      <trkpt lat="43.58454" lon="3.88404">
        <ele>19.096579</ele>
        <time>2025-03-13T19:42:53.541Z</time>
      </trkpt>
      <trkpt lat="43.58452" lon="3.88409">
        <ele>19.017435</ele>
        <time>2025-03-13T19:42:54.346Z</time>
      </trkpt>
      <trkpt lat="43.58447" lon="3.88424">
        <ele>18.795388</ele>
        <time>2025-03-13T19:42:56.528Z</time>
      </trkpt>
      <trkpt lat="43.58429" lon="3.88474">
        <ele>18.019837</ele>
        <time>2025-03-13T19:43:04.112Z</time>
      </trkpt>
      <trkpt lat="43.5842" lon="3.88499">
        <ele>17.638276</ele>
        <time>2025-03-13T19:43:07.753Z</time>
      </trkpt>
      <trkpt lat="43.58417" lon="3.88507">
        <ele>17.506945</ele>
        <time>2025-03-13T19:43:08.991Z</time>
      </trkpt>
      <trkpt lat="43.58404" lon="3.88542">
        <ele>16.963268</ele>
        <time>2025-03-13T19:43:13.993Z</time>
      </trkpt>
      <trkpt lat="43.58399" lon="3.88555">
        <ele>16.767684</ele>
        <time>2025-03-13T19:43:15.746Z</time>
      </trkpt>
      <trkpt lat="43.58394" lon="3.88567">
        <ele>16.57875</ele>
        <time>2025-03-13T19:43:17.403Z</time>
      </trkpt>
      <trkpt lat="43.5839" lon="3.8858">
        <ele>16.385262</ele>
        <time>2025-03-13T19:43:19.097Z</time>
      </trkpt>
      <trkpt lat="43.5838" lon="3.88607">
        <ele>15.942705</ele>
        <time>2025-03-13T19:43:22.751Z</time>
      </trkpt>
      <trkpt lat="43.58377" lon="3.88615">
        <ele>15.788568</ele>
        <time>2025-03-13T19:43:23.782Z</time>
      </trkpt>
      <trkpt lat="43.58342" lon="3.8871">
        <ele>13.951536</ele>
        <time>2025-03-13T19:43:36.262Z</time>
      </trkpt>
      <trkpt lat="43.58336" lon="3.88718">
        <ele>13.756086</ele>
        <time>2025-03-13T19:43:37.653Z</time>
      </trkpt>
      <trkpt lat="43.58335" lon="3.88725">
        <ele>13.624792</ele>
        <time>2025-03-13T19:43:38.588Z</time>
      </trkpt>
      <trkpt lat="43.58333" lon="3.88731">
        <ele>13.508922</ele>
        <time>2025-03-13T19:43:39.418Z</time>
      </trkpt>
      <trkpt lat="43.5833" lon="3.88738">
        <ele>13.370262</ele>
        <time>2025-03-13T19:43:40.422Z</time>
      </trkpt>
      <trkpt lat="43.58325" lon="3.88748">
        <ele>13.166503</ele>
        <time>2025-03-13T19:43:41.902Z</time>
      </trkpt>
      <trkpt lat="43.58345" lon="3.88765">
        <ele>12.600159</ele>
        <time>2025-03-13T19:43:46.160Z</time>
      </trkpt>
      <trkpt lat="43.58356" lon="3.88765">
        <ele>12.345593</ele>
        <time>2025-03-13T19:43:48.094Z</time>
      </trkpt>
      <trkpt lat="43.58386" lon="3.88784">
        <ele>11.725541</ele>
        <time>2025-03-13T19:43:54.254Z</time>
      </trkpt>
      <trkpt lat="43.58436" lon="3.88811">
        <ele>11.583269</ele>
        <time>2025-03-13T19:44:05.512Z</time>
      </trkpt>
      <trkpt lat="43.58448" lon="3.88817">
        <ele>11.548369</ele>
        <time>2025-03-13T19:44:08.597Z</time>
      </trkpt>
      <trkpt lat="43.58483" lon="3.88827">
        <ele>11.453969</ele>
        <time>2025-03-13T19:44:17.074Z</time>
      </trkpt>
      <trkpt lat="43.58486" lon="3.88828">
        <ele>11.445476</ele>
        <time>2025-03-13T19:44:17.786Z</time>
      </trkpt>
      <trkpt lat="43.58504" lon="3.88834">
        <ele>11.398394</ele>
        <time>2025-03-13T19:44:21.866Z</time>
      </trkpt>
      <trkpt lat="43.58514" lon="3.88842">
        <ele>11.366607</ele>
        <time>2025-03-13T19:44:24.548Z</time>
      </trkpt>
      <trkpt lat="43.58522" lon="3.88859">
        <ele>11.326786</ele>
        <time>2025-03-13T19:44:27.797Z</time>
      </trkpt>
      <trkpt lat="43.58535" lon="3.88864">
        <ele>11.292132</ele>
        <time>2025-03-13T19:44:30.555Z</time>
      </trkpt>
      <trkpt lat="43.58543" lon="3.88862">
        <ele>11.271326</ele>
        <time>2025-03-13T19:44:32.148Z</time>
      </trkpt>
      <trkpt lat="43.58557" lon="3.8887">
        <ele>11.243842</ele>
        <time>2025-03-13T19:44:35.446Z</time>
      </trkpt>
      <trkpt lat="43.5861" lon="3.88902">
        <ele>11.146818</ele>
        <time>2025-03-13T19:44:47.835Z</time>
      </trkpt>
      <trkpt lat="43.58614" lon="3.88904">
        <ele>11.139757</ele>
        <time>2025-03-13T19:44:48.730Z</time>
      </trkpt>
      <trkpt lat="43.58643" lon="3.88919">
        <ele>11.087586</ele>
        <time>2025-03-13T19:44:55.326Z</time>
      </trkpt>
      <trkpt lat="43.58672" lon="3.88935">
        <ele>11.035194</ele>
        <time>2025-03-13T19:45:02.225Z</time>
      </trkpt>
      <trkpt lat="43.58708" lon="3.88958">
        <ele>10.967357</ele>
        <time>2025-03-13T19:45:10.962Z</time>
      </trkpt>
      <trkpt lat="43.58729" lon="3.88971">
        <ele>10.913274</ele>
        <time>2025-03-13T19:45:15.835Z</time>
      </trkpt>
      <trkpt lat="43.58772" lon="3.89001">
        <ele>10.800064</ele>
        <time>2025-03-13T19:45:25.965Z</time>
      </trkpt>
      <trkpt lat="43.58795" lon="3.89016">
        <ele>10.740655</ele>
        <time>2025-03-13T19:45:31.305Z</time>
      </trkpt>
      <trkpt lat="43.58802" lon="3.89018">
        <ele>10.723763</ele>
        <time>2025-03-13T19:45:32.833Z</time>
      </trkpt>
      <trkpt lat="43.5882" lon="3.89023">
        <ele>10.68094</ele>
        <time>2025-03-13T19:45:36.700Z</time>
      </trkpt>
      <trkpt lat="43.5884" lon="3.89022">
        <ele>10.633579</ele>
        <time>2025-03-13T19:45:41.089Z</time>
      </trkpt>
      <trkpt lat="43.58856" lon="3.89015">
        <ele>10.594167</ele>
        <time>2025-03-13T19:45:44.823Z</time>
      </trkpt>
      <trkpt lat="43.58871" lon="3.89017">
        <ele>10.558484</ele>
        <time>2025-03-13T19:45:48.107Z</time>
      </trkpt>
      <trkpt lat="43.58883" lon="3.89037">
        <ele>10.548183</ele>
        <time>2025-03-13T19:45:52.058Z</time>
      </trkpt>
      <trkpt lat="43.5889" lon="3.89052">
        <ele>10.554455</ele>
        <time>2025-03-13T19:45:54.782Z</time>
      </trkpt>
      <trkpt lat="43.58898" lon="3.89061">
        <ele>10.559488</ele>
        <time>2025-03-13T19:45:56.993Z</time>
      </trkpt>
      <trkpt lat="43.58917" lon="3.89071">
        <ele>10.569385</ele>
        <time>2025-03-13T19:46:01.559Z</time>
      </trkpt>
      <trkpt lat="43.58938" lon="3.89067">
        <ele>10.579823</ele>
        <time>2025-03-13T19:46:06.199Z</time>
      </trkpt>
      <trkpt lat="43.5895" lon="3.89056">
        <ele>10.586864</ele>
        <time>2025-03-13T19:46:09.364Z</time>
      </trkpt>
      <trkpt lat="43.5896" lon="3.89035">
        <ele>10.595814</ele>
        <time>2025-03-13T19:46:13.469Z</time>
      </trkpt>
      <trkpt lat="43.58962" lon="3.89022">
        <ele>10.6006</ele>
        <time>2025-03-13T19:46:15.730Z</time>
      </trkpt>
      <trkpt lat="43.58963" lon="3.8901">
        <ele>10.604751</ele>
        <time>2025-03-13T19:46:17.656Z</time>
      </trkpt>
      <trkpt lat="43.58961" lon="3.88994">
        <ele>10.610564</ele>
        <time>2025-03-13T19:46:20.453Z</time>
      </trkpt>
      <trkpt lat="43.58955" lon="3.88979">
        <ele>10.616705</ele>
        <time>2025-03-13T19:46:23.429Z</time>
      </trkpt>
      <trkpt lat="43.58946" lon="3.88966">
        <ele>10.622862</ele>
        <time>2025-03-13T19:46:26.357Z</time>
      </trkpt>
      <trkpt lat="43.5894" lon="3.8895">
        <ele>10.629135</ele>
        <time>2025-03-13T19:46:29.313Z</time>
      </trkpt>
      <trkpt lat="43.58951" lon="3.88804">
        <ele>11.3</ele>
        <time>2025-03-13T19:46:58.116Z</time>
      </trkpt>
      <trkpt lat="43.58973" lon="3.88744">
        <ele>12</ele>
      </trkpt>
      <trkpt lat="43.59028" lon="3.8856">
        <ele>12.489326</ele>
        <time>2025-03-13T19:47:48.890Z</time>
      </trkpt>
      <trkpt lat="43.59028" lon="3.88556">
        <ele>13</ele>
      </trkpt>
      <trkpt lat="43.58983" lon="3.88525">
        <ele>12.786257</ele>
        <time>2025-03-13T19:48:02.755Z</time>
      </trkpt>
      <trkpt lat="43.5894" lon="3.88496">
        <ele>12.786257</ele>
        <time>2025-03-13T19:48:15.375Z</time>
      </trkpt>
      <trkpt lat="43.58911" lon="3.88476">
        <ele>12.786257</ele>
        <time>2025-03-13T19:48:23.867Z</time>
      </trkpt>
      <trkpt lat="43.58909" lon="3.88481">
        <ele>12.786257</ele>
        <time>2025-03-13T19:48:24.904Z</time>
      </trkpt>
      <trkpt lat="43.58889" lon="3.88467">
        <ele>12.786257</ele>
        <time>2025-03-13T19:48:30.419Z</time>
      </trkpt>
      <trkpt lat="43.58844" lon="3.88434">
        <ele>12.786257</ele>
        <time>2025-03-13T19:48:42.621Z</time>
      </trkpt>
      <trkpt lat="43.58825" lon="3.88484">
        <ele>12.786257</ele>
        <time>2025-03-13T19:48:52.574Z</time>
      </trkpt>
    </trkseg>
  </trk>
</gpx>